King of Scandinavia — OVOL2 — position and weather

sailwx.info

Track history (hours):
 
Tides and Currents Weather Stations Pressure Air Temp Water Temp Dewpoint Dewpoint Depression Visibility Wind Speed Wind Dir Waves Ship Positions

King of Scandinavia

Ship's website: http://www.dfds.co.uk/DSW/EN/OnBoard/na/KING.htm

Last reported at 2019-Nov-11 17:30 UTC. Time now 2019-Nov-11 22:30 UTC.
Position N 52°35' E 004°21'.

Length 166 m; beam 27.6 m; draft 6.2 m.

Type: Ship. MMSI: 220449000.

Date/timePositionNaut miles runAvg speedWind from/ knotsBaromVisibWave heightAir tempDewpointWater temp
2019-Nov-11 17:30N 52°35' E 004°21'816.6
2019-Nov-11 17:00N 52°29' E 004°31'3 5.9
2019-Nov-11 16:30N 52°28' E 004°35'0 0.0
2019-Nov-11 14:58N 52°28' E 004°35'0 0.0
2019-Nov-11 12:58N 52°28' E 004°35'0 0.0
2019-Nov-11 11:58N 52°28' E 004°35'0 0.0
2019-Nov-11 10:28N 52°28' E 004°35'0 0.0
2019-Nov-11 08:58N 52°28' E 004°35'12615.8
2019-Nov-11 00:59N 53°43' E 001°46'817.0
2019-Nov-11 00:31N 53°48' E 001°36'1717.1
2019-Nov-10 23:31N 53°60' E 001°15'11214.8
2019-Nov-10 15:58N 54°59' W 001°27'1 0.1
2019-Nov-10 09:00N 54°60' W 001°27'26315.9
2019-Nov-09 16:30N 52°28' E 004°35'0 0.0
2019-Nov-09 15:30N 52°28' E 004°35'0 0.0
2019-Nov-09 10:30N 52°28' E 004°35'0 0.0
2019-Nov-09 10:00N 52°28' E 004°35'13914.6
2019-Nov-09 00:31N 53°50' E 001°29'12117.3
2019-Nov-08 17:30N 55°00' W 001°21'3 3.4
2019-Nov-08 16:30N 54°59' W 001°27'0 0.0
2019-Nov-08 10:55N 54°59' W 001°27'0 0.0
2019-Nov-08 09:28N 54°59' W 001°27'0 0.6
2019-Nov-08 09:00N 54°60' W 001°27'510.0
2019-Nov-08 08:31N 54°59' W 001°18'25815.2
2019-Nov-07 15:30N 52°28' E 004°35'0 0.0
2019-Nov-07 14:30N 52°28' E 004°35'0 0.0
2019-Nov-07 12:00N 52°28' E 004°35'0 0.0
2019-Nov-07 11:00N 52°28' E 004°35'13 3.8
2019-Nov-07 07:30N 52°36' E 004°17'24915.4
2019-Nov-06 15:22N 54°59' W 001°27'0 0.0
2019-Nov-06 14:52N 54°59' W 001°27'0 0.0
2019-Nov-06 14:31N 54°59' W 001°27'0 0.0
2019-Nov-06 13:52N 54°59' W 001°27'0 0.0
2019-Nov-06 13:22N 54°59' W 001°27'5 1.0
2019-Nov-06 08:30N 54°60' W 001°18'11517.6
2019-Nov-06 01:59N 53°55' E 001°25'12915.2
2019-Nov-05 17:27N 52°36' E 004°17'14 5.8
2019-Nov-05 14:59N 52°28' E 004°35'0 0.0
2019-Nov-05 12:59N 52°28' E 004°35'0 0.0
2019-Nov-05 11:29N 52°28' E 004°35'0 0.0
2019-Nov-05 10:59N 52°28' E 004°35'0 0.1
2019-Nov-05 08:30N 52°28' E 004°35'12415.5
2019-Nov-05 00:30N 53°41' E 001°48'816.4
2019-Nov-05 00:01N 53°46' E 001°37'1818.2
2019-Nov-04 23:00N 53°59' E 001°14'112 8.6
2019-Nov-04 09:58N 54°59' W 001°27'12313.6
2019-Nov-04 00:56N 53°52' E 001°30'12615.9
2019-Nov-03 17:00N 52°36' E 004°17'14 6.7
2019-Nov-03 14:58N 52°28' E 004°35'0 0.0
2019-Nov-03 14:28N 52°28' E 004°35'0 0.0
2019-Nov-03 13:28N 52°28' E 004°35'0 0.0
2019-Nov-03 09:58N 52°28' E 004°35'6 2.9
2019-Nov-03 08:01N 52°29' E 004°26'24317.0
2019-Nov-02 17:44N 54°54' W 001°05'419.2
2019-Nov-02 17:31N 54°56' W 001°11'10 1.3
2019-Nov-02 09:53N 54°59' W 001°27'1 0.6
2019-Nov-02 09:00N 54°60' W 001°27'5 9.2
2019-Nov-02 08:30N 54°59' W 001°19'12018.4
2019-Nov-02 01:58N 53°51' E 001°31'1019.4
2019-Nov-02 01:29N 53°46' E 001°45'10715.8
2019-Nov-01 18:42N 52°41' E 004°07'716.9
2019-Nov-01 18:17N 52°36' E 004°16'517.2
2019-Nov-01 18:00N 52°33' E 004°22'816.4
2019-Nov-01 17:31N 52°28' E 004°32'  
Track history (hours):
 
Tides and Currents Weather Stations Pressure Air Temp Water Temp Dewpoint Dewpoint Depression Visibility Wind Speed Wind Dir Waves Ship Positions

King of Scandinavia

Ship's website: http://www.dfds.co.uk/DSW/EN/OnBoard/na/KING.htm

Last reported at 2019-Nov-11 17:30 UTC. Time now 2019-Nov-11 22:30 UTC.
Position N 52°35' E 004°21'.

Length 166 m; beam 27.6 m; draft 6.2 m.

Type: Ship. MMSI: 220449000.

Date/timePositionNaut miles runAvg speedWind from/ knotsBaromVisibWave heightAir tempDewpointWater temp
2019-Nov-11 17:30N 52°35' E 004°21'816.6
2019-Nov-11 17:00N 52°29' E 004°31'3 5.9
2019-Nov-11 16:30N 52°28' E 004°35'0 0.0
2019-Nov-11 14:58N 52°28' E 004°35'0 0.0
2019-Nov-11 12:58N 52°28' E 004°35'0 0.0
2019-Nov-11 11:58N 52°28' E 004°35'0 0.0
2019-Nov-11 10:28N 52°28' E 004°35'0 0.0
2019-Nov-11 08:58N 52°28' E 004°35'12615.8
2019-Nov-11 00:59N 53°43' E 001°46'817.0
2019-Nov-11 00:31N 53°48' E 001°36'1717.1
2019-Nov-10 23:31N 53°60' E 001°15'11214.8
2019-Nov-10 15:58N 54°59' W 001°27'1 0.1
2019-Nov-10 09:00N 54°60' W 001°27'26315.9
2019-Nov-09 16:30N 52°28' E 004°35'0 0.0
2019-Nov-09 15:30N 52°28' E 004°35'0 0.0
2019-Nov-09 10:30N 52°28' E 004°35'0 0.0
2019-Nov-09 10:00N 52°28' E 004°35'13914.6
2019-Nov-09 00:31N 53°50' E 001°29'12117.3
2019-Nov-08 17:30N 55°00' W 001°21'3 3.4
2019-Nov-08 16:30N 54°59' W 001°27'0 0.0
2019-Nov-08 10:55N 54°59' W 001°27'0 0.0
2019-Nov-08 09:28N 54°59' W 001°27'0 0.6
2019-Nov-08 09:00N 54°60' W 001°27'510.0
2019-Nov-08 08:31N 54°59' W 001°18'25815.2
2019-Nov-07 15:30N 52°28' E 004°35'0 0.0
2019-Nov-07 14:30N 52°28' E 004°35'0 0.0
2019-Nov-07 12:00N 52°28' E 004°35'0 0.0
2019-Nov-07 11:00N 52°28' E 004°35'13 3.8
2019-Nov-07 07:30N 52°36' E 004°17'24915.4
2019-Nov-06 15:22N 54°59' W 001°27'0 0.0
2019-Nov-06 14:52N 54°59' W 001°27'0 0.0
2019-Nov-06 14:31N 54°59' W 001°27'0 0.0
2019-Nov-06 13:52N 54°59' W 001°27'0 0.0
2019-Nov-06 13:22N 54°59' W 001°27'5 1.0
2019-Nov-06 08:30N 54°60' W 001°18'11517.6
2019-Nov-06 01:59N 53°55' E 001°25'12915.2
2019-Nov-05 17:27N 52°36' E 004°17'14 5.8
2019-Nov-05 14:59N 52°28' E 004°35'0 0.0
2019-Nov-05 12:59N 52°28' E 004°35'0 0.0
2019-Nov-05 11:29N 52°28' E 004°35'0 0.0
2019-Nov-05 10:59N 52°28' E 004°35'0 0.1
2019-Nov-05 08:30N 52°28' E 004°35'12415.5
2019-Nov-05 00:30N 53°41' E 001°48'816.4
2019-Nov-05 00:01N 53°46' E 001°37'1818.2
2019-Nov-04 23:00N 53°59' E 001°14'112 8.6
2019-Nov-04 09:58N 54°59' W 001°27'12313.6
2019-Nov-04 00:56N 53°52' E 001°30'12615.9
2019-Nov-03 17:00N 52°36' E 004°17'14 6.7
2019-Nov-03 14:58N 52°28' E 004°35'0 0.0
2019-Nov-03 14:28N 52°28' E 004°35'0 0.0
2019-Nov-03 13:28N 52°28' E 004°35'0 0.0
2019-Nov-03 09:58N 52°28' E 004°35'6 2.9
2019-Nov-03 08:01N 52°29' E 004°26'24317.0
2019-Nov-02 17:44N 54°54' W 001°05'419.2
2019-Nov-02 17:31N 54°56' W 001°11'10 1.3
2019-Nov-02 09:53N 54°59' W 001°27'1 0.6
2019-Nov-02 09:00N 54°60' W 001°27'5 9.2
2019-Nov-02 08:30N 54°59' W 001°19'12018.4
2019-Nov-02 01:58N 53°51' E 001°31'1019.4
2019-Nov-02 01:29N 53°46' E 001°45'10715.8
2019-Nov-01 18:42N 52°41' E 004°07'716.9
2019-Nov-01 18:17N 52°36' E 004°16'517.2
2019-Nov-01 18:00N 52°33' E 004°22'816.4
2019-Nov-01 17:31N 52°28' E 004°32'  

Dump ship's entire track history